sensor_id;sensor_type;location;lat;lon;timestamp;pressure;altitude;pressure_sealevel;temperature;humidity
49393;BME280;35268;42.642;23.308;2023-10-31T00:01:02;94144.63;;;12.07;65.32
49393;BME280;35268;42.642;23.308;2023-10-31T00:03:27;94145.25;;;12.04;65.61
49393;BME280;35268;42.642;23.308;2023-10-31T00:05:52;94144.59;;;11.98;65.95
49393;BME280;35268;42.642;23.308;2023-10-31T00:08:20;94151.19;;;11.92;66.17
49393;BME280;35268;42.642;23.308;2023-10-31T00:10:46;94140.53;;;11.92;66.58
49393;BME280;35268;42.642;23.308;2023-10-31T00:13:11;94132.19;;;11.94;66.28
49393;BME280;35268;42.642;23.308;2023-10-31T00:15:37;94132.97;;;11.94;66.14
49393;BME280;35268;42.642;23.308;2023-10-31T00:18:02;94137.53;;;11.94;66.51
49393;BME280;35268;42.642;23.308;2023-10-31T00:20:28;94129.53;;;11.94;66.19
49393;BME280;35268;42.642;23.308;2023-10-31T00:22:54;94130.66;;;11.93;66.25
49393;BME280;35268;42.642;23.308;2023-10-31T00:25:19;94125.13;;;11.89;66.68
49393;BME280;35268;42.642;23.308;2023-10-31T00:27:45;94120.56;;;11.90;66.54
49393;BME280;35268;42.642;23.308;2023-10-31T00:30:10;94133.31;;;11.93;66.41
49393;BME280;35268;42.642;23.308;2023-10-31T00:32:36;94135.81;;;11.89;66.48
49393;BME280;35268;42.642;23.308;2023-10-31T00:35:01;94116.94;;;11.85;66.72
49393;BME280;35268;42.642;23.308;2023-10-31T00:37:27;94123.22;;;11.81;67.06
49393;BME280;35268;42.642;23.308;2023-10-31T00:39:52;94126.97;;;11.71;67.02
49393;BME280;35268;42.642;23.308;2023-10-31T00:42:18;94111.25;;;11.70;67.28
49393;BME280;35268;42.642;23.308;2023-10-31T00:44:43;94114.88;;;11.65;67.45
49393;BME280;35268;42.642;23.308;2023-10-31T00:47:09;94112.81;;;11.62;67.54
49393;BME280;35268;42.642;23.308;2023-10-31T00:49:35;94112.22;;;11.56;67.80
49393;BME280;35268;42.642;23.308;2023-10-31T00:52:00;94113.59;;;11.54;67.83
49393;BME280;35268;42.642;23.308;2023-10-31T00:54:26;94113.59;;;11.54;68.03
49393;BME280;35268;42.642;23.308;2023-10-31T00:56:51;94107.94;;;11.47;68.20
49393;BME280;35268;42.642;23.308;2023-10-31T00:59:19;94100.88;;;11.42;68.66
49393;BME280;35268;42.642;23.308;2023-10-31T01:01:44;94110.44;;;11.43;68.77
49393;BME280;35268;42.642;23.308;2023-10-31T01:04:10;94094.75;;;11.41;68.87
49393;BME280;35268;42.642;23.308;2023-10-31T01:06:42;94091.47;;;11.36;69.02
49393;BME280;35268;42.642;23.308;2023-10-31T01:09:11;94091.59;;;11.31;69.19
49393;BME280;35268;42.642;23.308;2023-10-31T01:11:37;94093.78;;;11.29;69.60
49393;BME280;35268;42.642;23.308;2023-10-31T01:14:03;94097.56;;;11.28;69.50
49393;BME280;35268;42.642;23.308;2023-10-31T01:16:28;94089.56;;;11.28;69.89
49393;BME280;35268;42.642;23.308;2023-10-31T01:18:53;94090.66;;;11.27;69.91
49393;BME280;35268;42.642;23.308;2023-10-31T01:21:19;94088.75;;;11.27;70.00
49393;BME280;35268;42.642;23.308;2023-10-31T01:23:44;94082.47;;;11.23;70.06
49393;BME280;35268;42.642;23.308;2023-10-31T01:26:10;94089.41;;;11.24;70.42
49393;BME280;35268;42.642;23.308;2023-10-31T01:28:35;94079.31;;;11.21;70.58
49393;BME280;35268;42.642;23.308;2023-10-31T01:31:00;94085.47;;;11.21;70.56
49393;BME280;35268;42.642;23.308;2023-10-31T01:33:26;94086.25;;;11.22;70.47
49393;BME280;35268;42.642;23.308;2023-10-31T01:35:54;94079.19;;;11.17;70.25
49393;BME280;35268;42.642;23.308;2023-10-31T01:38:19;94077.44;;;11.13;70.50
49393;BME280;35268;42.642;23.308;2023-10-31T01:40:48;94071.31;;;11.12;70.61
49393;BME280;35268;42.642;23.308;2023-10-31T01:43:29;94082.59;;;11.09;70.58
49393;BME280;35268;42.642;23.308;2023-10-31T01:45:54;94079.78;;;11.06;70.75
49393;BME280;35268;42.642;23.308;2023-10-31T01:48:20;94082.09;;;10.98;71.01
49393;BME280;35268;42.642;23.308;2023-10-31T01:50:46;94080.66;;;10.92;71.29
49393;BME280;35268;42.642;23.308;2023-10-31T01:53:11;94078.31;;;10.91;71.33
49393;BME280;35268;42.642;23.308;2023-10-31T01:55:37;94077.06;;;10.88;71.48
49393;BME280;35268;42.642;23.308;2023-10-31T01:58:02;94073.72;;;10.82;71.74
49393;BME280;35268;42.642;23.308;2023-10-31T02:00:28;94062.91;;;10.79;72.19
49393;BME280;35268;42.642;23.308;2023-10-31T02:02:53;94067.44;;;10.78;72.43
49393;BME280;35268;42.642;23.308;2023-10-31T02:05:19;94064.63;;;10.75;72.60
49393;BME280;35268;42.642;23.308;2023-10-31T02:07:45;94062.75;;;10.75;73.04
49393;BME280;35268;42.642;23.308;2023-10-31T02:10:11;94068.25;;;10.79;73.31
49393;BME280;35268;42.642;23.308;2023-10-31T02:12:37;94054.44;;;10.77;73.39
49393;BME280;35268;42.642;23.308;2023-10-31T02:15:03;94056.47;;;10.71;73.85
49393;BME280;35268;42.642;23.308;2023-10-31T02:17:31;94057.88;;;10.69;73.99
49393;BME280;35268;42.642;23.308;2023-10-31T02:19:57;94057.88;;;10.69;74.13
49393;BME280;35268;42.642;23.308;2023-10-31T02:22:23;94050.66;;;10.69;74.14
49393;BME280;35268;42.642;23.308;2023-10-31T02:24:50;94050.34;;;10.71;74.23
49393;BME280;35268;42.642;23.308;2023-10-31T02:27:16;94040.91;;;10.64;74.58
49393;BME280;35268;42.642;23.308;2023-10-31T02:29:42;94047.81;;;10.66;75.05
49393;BME280;35268;42.642;23.308;2023-10-31T02:32:07;94046.25;;;10.64;75.19
49393;BME280;35268;42.642;23.308;2023-10-31T02:34:33;94041.53;;;10.61;75.30
49393;BME280;35268;42.642;23.308;2023-10-31T02:36:59;94045.78;;;10.62;75.43
49393;BME280;35268;42.642;23.308;2023-10-31T02:39:25;94045.28;;;10.60;75.33
49393;BME280;35268;42.642;23.308;2023-10-31T02:41:50;94042.16;;;10.58;75.31
49393;BME280;35268;42.642;23.308;2023-10-31T02:44:18;94037.72;;;10.54;75.47
49393;BME280;35268;42.642;23.308;2023-10-31T02:46:44;94045.13;;;10.57;75.50
49393;BME280;35268;42.642;23.308;2023-10-31T02:49:09;94042.75;;;10.55;75.38
49393;BME280;35268;42.642;23.308;2023-10-31T02:51:35;94042.91;;;10.50;76.18
49393;BME280;35268;42.642;23.308;2023-10-31T02:54:03;94039.13;;;10.51;76.75
49393;BME280;35268;42.642;23.308;2023-10-31T02:56:28;94043.22;;;10.57;77.24
49393;BME280;35268;42.642;23.308;2023-10-31T02:58:54;94050.00;;;10.63;77.59
49393;BME280;35268;42.642;23.308;2023-10-31T03:01:19;94048.28;;;10.68;77.81
49393;BME280;35268;42.642;23.308;2023-10-31T03:03:46;94050.94;;;10.68;77.75
49393;BME280;35268;42.642;23.308;2023-10-31T03:06:13;94044.06;;;10.67;77.63
49393;BME280;35268;42.642;23.308;2023-10-31T03:08:39;94044.22;;;10.70;76.96
49393;BME280;35268;42.642;23.308;2023-10-31T03:11:04;94052.06;;;10.67;76.84
49393;BME280;35268;42.642;23.308;2023-10-31T03:13:30;94051.59;;;10.64;76.80
49393;BME280;35268;42.642;23.308;2023-10-31T03:15:55;94046.84;;;10.61;76.79
49393;BME280;35268;42.642;23.308;2023-10-31T03:18:20;94042.94;;;10.59;76.91
49393;BME280;35268;42.642;23.308;2023-10-31T03:20:55;94042.63;;;10.60;76.82
49393;BME280;35268;42.642;23.308;2023-10-31T03:23:20;94035.22;;;10.57;76.69
49393;BME280;35268;42.642;23.308;2023-10-31T03:25:46;94035.88;;;10.54;76.63
49393;BME280;35268;42.642;23.308;2023-10-31T03:28:19;94035.53;;;10.56;76.99
49393;BME280;35268;42.642;23.308;2023-10-31T03:30:46;94028.34;;;10.56;76.89
49393;BME280;35268;42.642;23.308;2023-10-31T03:33:12;94022.84;;;10.53;76.70
49393;BME280;35268;42.642;23.308;2023-10-31T03:35:37;94017.81;;;10.51;76.60
49393;BME280;35268;42.642;23.308;2023-10-31T03:38:03;94032.53;;;10.49;76.62
49393;BME280;35268;42.642;23.308;2023-10-31T03:40:28;94016.38;;;10.45;76.75
49393;BME280;35268;42.642;23.308;2023-10-31T03:42:54;94017.16;;;10.46;76.93
49393;BME280;35268;42.642;23.308;2023-10-31T03:45:19;94008.69;;;10.43;77.22
49393;BME280;35268;42.642;23.308;2023-10-31T03:47:44;94009.78;;;10.42;77.47
49393;BME280;35268;42.642;23.308;2023-10-31T03:50:10;94002.28;;;10.44;77.87
49393;BME280;35268;42.642;23.308;2023-10-31T03:52:35;94018.88;;;10.41;78.20
49393;BME280;35268;42.642;23.308;2023-10-31T03:55:01;94020.47;;;10.42;77.90
49393;BME280;35268;42.642;23.308;2023-10-31T03:57:26;94028.03;;;10.27;77.14
49393;BME280;35268;42.642;23.308;2023-10-31T03:59:51;94020.75;;;10.10;77.28
49393;BME280;35268;42.642;23.308;2023-10-31T04:02:17;94023.47;;;9.96;78.03
49393;BME280;35268;42.642;23.308;2023-10-31T04:04:42;94024.72;;;9.67;79.12
49393;BME280;35268;42.642;23.308;2023-10-31T04:07:07;94017.81;;;9.66;79.19
49393;BME280;35268;42.642;23.308;2023-10-31T04:09:33;94029.84;;;9.63;79.39
49393;BME280;35268;42.642;23.308;2023-10-31T04:11:59;94023.56;;;9.59;79.52
49393;BME280;35268;42.642;23.308;2023-10-31T04:14:24;94032.81;;;9.62;79.46
49393;BME280;35268;42.642;23.308;2023-10-31T04:16:49;94018.91;;;9.65;79.29
49393;BME280;35268;42.642;23.308;2023-10-31T04:19:15;94022.06;;;9.67;79.32
49393;BME280;35268;42.642;23.308;2023-10-31T04:21:40;94008.75;;;9.67;78.96
49393;BME280;35268;42.642;23.308;2023-10-31T04:24:06;94016.25;;;9.65;78.59
49393;BME280;35268;42.642;23.308;2023-10-31T04:26:31;94002.47;;;9.63;78.34
49393;BME280;35268;42.642;23.308;2023-10-31T04:28:59;94006.19;;;9.62;78.01
49393;BME280;35268;42.642;23.308;2023-10-31T04:31:24;94004.94;;;9.59;77.95
49393;BME280;35268;42.642;23.308;2023-10-31T04:33:50;93996.75;;;9.56;77.90
49393;BME280;35268;42.642;23.308;2023-10-31T04:36:15;94002.38;;;9.54;77.72
49393;BME280;35268;42.642;23.308;2023-10-31T04:38:40;94001.91;;;9.52;78.02
49393;BME280;35268;42.642;23.308;2023-10-31T04:41:08;93996.72;;;9.47;77.92
49393;BME280;35268;42.642;23.308;2023-10-31T04:43:33;93994.34;;;9.46;78.37
49393;BME280;35268;42.642;23.308;2023-10-31T04:45:58;93994.03;;;9.47;78.57
49393;BME280;35268;42.642;23.308;2023-10-31T04:48:24;94010.00;;;9.47;78.39
49393;BME280;35268;42.642;23.308;2023-10-31T04:50:49;94017.50;;;9.45;78.15
49393;BME280;35268;42.642;23.308;2023-10-31T04:53:15;94011.22;;;9.41;77.59
49393;BME280;35268;42.642;23.308;2023-10-31T04:55:40;94020.88;;;9.37;78.26
49393;BME280;35268;42.642;23.308;2023-10-31T04:58:05;94021.31;;;9.30;78.54
49393;BME280;35268;42.642;23.308;2023-10-31T05:00:31;94030.06;;;9.31;79.03
49393;BME280;35268;42.642;23.308;2023-10-31T05:02:56;94022.19;;;9.26;78.96
49393;BME280;35268;42.642;23.308;2023-10-31T05:05:23;94026.47;;;9.13;80.17
49393;BME280;35268;42.642;23.308;2023-10-31T05:07:48;94028.22;;;9.17;80.09
49393;BME280;35268;42.642;23.308;2023-10-31T05:10:14;94022.13;;;9.17;80.06
49393;BME280;35268;42.642;23.308;2023-10-31T05:12:39;94024.50;;;9.18;80.14
49393;BME280;35268;42.642;23.308;2023-10-31T05:15:05;94025.28;;;9.19;80.05
49393;BME280;35268;42.642;23.308;2023-10-31T05:17:31;94023.09;;;9.21;79.91
49393;BME280;35268;42.642;23.308;2023-10-31T05:19:56;94038.47;;;9.24;79.93
49393;BME280;35268;42.642;23.308;2023-10-31T05:22:24;94032.94;;;9.20;79.35
49393;BME280;35268;42.642;23.308;2023-10-31T05:24:49;94030.59;;;9.19;79.56
49393;BME280;35268;42.642;23.308;2023-10-31T05:27:15;94032.75;;;9.17;79.96
49393;BME280;35268;42.642;23.308;2023-10-31T05:29:40;94034.31;;;9.18;80.08
49393;BME280;35268;42.642;23.308;2023-10-31T05:32:06;94038.28;;;9.20;80.11
49393;BME280;35268;42.642;23.308;2023-10-31T05:34:31;94028.63;;;9.24;80.02
49393;BME280;35268;42.642;23.308;2023-10-31T05:36:56;94032.72;;;9.31;79.79
49393;BME280;35268;42.642;23.308;2023-10-31T05:39:22;94034.00;;;9.33;79.95
49393;BME280;35268;42.642;23.308;2023-10-31T05:41:47;94038.59;;;9.41;80.14
49393;BME280;35268;42.642;23.308;2023-10-31T05:44:13;94043.50;;;9.48;79.68
49393;BME280;35268;42.642;23.308;2023-10-31T05:46:38;94031.50;;;9.51;79.99
49393;BME280;35268;42.642;23.308;2023-10-31T05:49:06;94027.91;;;9.55;80.24
49393;BME280;35268;42.642;23.308;2023-10-31T05:51:32;94015.56;;;9.59;80.32
49393;BME280;35268;42.642;23.308;2023-10-31T05:53:59;94031.59;;;9.68;79.97
49393;BME280;35268;42.642;23.308;2023-10-31T05:56:25;94051.69;;;9.74;80.01
49393;BME280;35268;42.642;23.308;2023-10-31T05:58:50;94046.06;;;9.76;80.07
49393;BME280;35268;42.642;23.308;2023-10-31T06:01:15;94068.03;;;9.81;80.40
49393;BME280;35268;42.642;23.308;2023-10-31T06:03:42;94071.41;;;9.73;79.54
49393;BME280;35268;42.642;23.308;2023-10-31T06:06:11;94067.16;;;9.72;79.45
49393;BME280;35268;42.642;23.308;2023-10-31T06:08:37;94069.34;;;9.70;79.40
49393;BME280;35268;42.642;23.308;2023-10-31T06:11:03;94063.72;;;9.72;79.50
49393;BME280;35268;42.642;23.308;2023-10-31T06:13:29;94069.09;;;9.80;79.26
49393;BME280;35268;42.642;23.308;2023-10-31T06:15:56;94072.16;;;9.88;78.72
49393;BME280;35268;42.642;23.308;2023-10-31T06:18:23;94076.50;;;9.83;78.74
49393;BME280;35268;42.642;23.308;2023-10-31T06:20:52;94073.53;;;9.85;78.94
49393;BME280;35268;42.642;23.308;2023-10-31T06:23:17;94071.75;;;9.80;78.82
49393;BME280;35268;42.642;23.308;2023-10-31T06:25:42;94072.38;;;9.77;78.46
49393;BME280;35268;42.642;23.308;2023-10-31T06:28:08;94075.16;;;9.72;77.90
49393;BME280;35268;42.642;23.308;2023-10-31T06:30:33;94078.91;;;9.71;78.59
49393;BME280;35268;42.642;23.308;2023-10-31T06:32:59;94082.22;;;9.77;78.65
49393;BME280;35268;42.642;23.308;2023-10-31T06:35:25;94083.69;;;9.83;78.71
49393;BME280;35268;42.642;23.308;2023-10-31T06:37:55;94079.50;;;9.91;78.28
49393;BME280;35268;42.642;23.308;2023-10-31T06:40:22;94075.63;;;9.97;78.77
49393;BME280;35268;42.642;23.308;2023-10-31T06:42:48;94077.09;;;10.03;78.88
49393;BME280;35268;42.642;23.308;2023-10-31T06:45:13;94074.78;;;10.10;78.83
49393;BME280;35268;42.642;23.308;2023-10-31T06:47:39;94070.47;;;10.23;78.78
49393;BME280;35268;42.642;23.308;2023-10-31T06:50:06;94054.44;;;10.37;78.31
49393;BME280;35268;42.642;23.308;2023-10-31T06:52:32;94057.31;;;10.49;78.09
49393;BME280;35268;42.642;23.308;2023-10-31T06:55:00;94059.88;;;10.63;77.50
49393;BME280;35268;42.642;23.308;2023-10-31T06:57:25;94069.63;;;10.76;77.32
49393;BME280;35268;42.642;23.308;2023-10-31T06:59:51;94055.72;;;10.88;76.93
49393;BME280;35268;42.642;23.308;2023-10-31T07:02:17;94063.44;;;10.98;76.62
49393;BME280;35268;42.642;23.308;2023-10-31T07:04:43;94064.56;;;11.15;75.20
49393;BME280;35268;42.642;23.308;2023-10-31T07:07:08;94050.44;;;11.23;74.79
49393;BME280;35268;42.642;23.308;2023-10-31T07:09:34;94059.75;;;11.34;74.59
49393;BME280;35268;42.642;23.308;2023-10-31T07:11:59;94052.38;;;11.49;73.61
49393;BME280;35268;42.642;23.308;2023-10-31T07:14:24;94060.69;;;11.56;73.76
49393;BME280;35268;42.642;23.308;2023-10-31T07:16:50;94059.91;;;11.64;73.30
49393;BME280;35268;42.642;23.308;2023-10-31T07:19:15;94057.88;;;11.70;73.31
49393;BME280;35268;42.642;23.308;2023-10-31T07:21:41;94058.50;;;11.75;73.08
49393;BME280;35268;42.642;23.308;2023-10-31T07:24:06;94058.81;;;11.82;72.98
49393;BME280;35268;42.642;23.308;2023-10-31T07:26:34;94051.59;;;11.92;72.77
49393;BME280;35268;42.642;23.308;2023-10-31T07:28:59;94053.94;;;12.02;72.08
49393;BME280;35268;42.642;23.308;2023-10-31T07:31:25;94059.25;;;12.11;71.78
49393;BME280;35268;42.642;23.308;2023-10-31T07:33:50;94055.47;;;12.20;71.76
49393;BME280;35268;42.642;23.308;2023-10-31T07:36:16;94061.13;;;12.28;71.27
49393;BME280;35268;42.642;23.308;2023-10-31T07:38:41;94055.44;;;12.38;70.42
49393;BME280;35268;42.642;23.308;2023-10-31T07:41:06;94040.59;;;12.49;70.15
49393;BME280;35268;42.642;23.308;2023-10-31T07:43:32;94047.19;;;12.60;69.97
49393;BME280;35268;42.642;23.308;2023-10-31T07:45:57;94041.63;;;12.74;69.45
49393;BME280;35268;42.642;23.308;2023-10-31T07:48:23;94036.69;;;12.85;69.66
49393;BME280;35268;42.642;23.308;2023-10-31T07:50:48;94030.97;;;12.95;69.35
49393;BME280;35268;42.642;23.308;2023-10-31T07:53:13;94024.59;;;13.09;69.23
49393;BME280;35268;42.642;23.308;2023-10-31T07:55:39;94025.16;;;13.23;68.60
49393;BME280;35268;42.642;23.308;2023-10-31T07:58:07;94022.13;;;13.33;68.28
49393;BME280;35268;42.642;23.308;2023-10-31T08:00:36;94009.91;;;13.44;67.88
49393;BME280;35268;42.642;23.308;2023-10-31T08:03:02;94011.53;;;13.58;68.02
49393;BME280;35268;42.642;23.308;2023-10-31T08:05:27;94008.91;;;13.70;67.41
49393;BME280;35268;42.642;23.308;2023-10-31T08:07:53;94011.38;;;13.75;66.75
49393;BME280;35268;42.642;23.308;2023-10-31T08:10:18;94008.63;;;13.84;66.65
49393;BME280;35268;42.642;23.308;2023-10-31T08:12:44;93997.59;;;13.98;66.42
49393;BME280;35268;42.642;23.308;2023-10-31T08:15:09;94017.53;;;14.09;66.55
49393;BME280;35268;42.642;23.308;2023-10-31T08:17:38;94000.91;;;14.16;66.15
49393;BME280;35268;42.642;23.308;2023-10-31T08:20:04;94000.16;;;14.28;66.27
49393;BME280;35268;42.642;23.308;2023-10-31T08:22:29;94003.75;;;14.44;65.54
49393;BME280;35268;42.642;23.308;2023-10-31T08:24:54;94001.75;;;14.53;65.17
49393;BME280;35268;42.642;23.308;2023-10-31T08:27:20;93986.34;;;14.62;64.99
49393;BME280;35268;42.642;23.308;2023-10-31T08:29:45;93985.22;;;14.51;64.76
49393;BME280;35268;42.642;23.308;2023-10-31T08:35:14;93977.72;;;14.81;63.60
49393;BME280;35268;42.642;23.308;2023-10-31T08:37:39;93964.44;;;14.85;63.51
49393;BME280;35268;42.642;23.308;2023-10-31T08:40:05;93972.81;;;14.96;62.88
49393;BME280;35268;42.642;23.308;2023-10-31T08:42:31;93962.84;;;15.09;61.82
49393;BME280;35268;42.642;23.308;2023-10-31T08:44:56;93962.03;;;15.20;61.50
49393;BME280;35268;42.642;23.308;2023-10-31T08:47:21;93962.78;;;15.33;61.34
49393;BME280;35268;42.642;23.308;2023-10-31T08:49:50;93959.38;;;15.49;60.66
49393;BME280;35268;42.642;23.308;2023-10-31T08:52:16;93949.72;;;15.60;59.19
49393;BME280;35268;42.642;23.308;2023-10-31T08:54:43;93936.56;;;15.71;58.95
49393;BME280;35268;42.642;23.308;2023-10-31T08:57:11;93936.47;;;15.79;59.03
49393;BME280;35268;42.642;23.308;2023-10-31T08:59:39;93940.63;;;15.93;58.75
49393;BME280;35268;42.642;23.308;2023-10-31T09:02:06;93937.53;;;16.07;56.24
49393;BME280;35268;42.642;23.308;2023-10-31T09:04:31;93932.69;;;16.12;56.20
49393;BME280;35268;42.642;23.308;2023-10-31T09:06:56;93921.41;;;16.07;55.96
49393;BME280;35268;42.642;23.308;2023-10-31T09:09:22;93920.59;;;16.22;56.15
49393;BME280;35268;42.642;23.308;2023-10-31T09:11:47;93903.63;;;16.34;54.72
49393;BME280;35268;42.642;23.308;2023-10-31T09:14:20;93910.28;;;16.40;52.89
49393;BME280;35268;42.642;23.308;2023-10-31T09:16:46;93906.19;;;16.46;52.89
49393;BME280;35268;42.642;23.308;2023-10-31T09:19:11;93898.75;;;16.55;53.24
49393;BME280;35268;42.642;23.308;2023-10-31T09:21:36;93903.31;;;16.71;53.61
49393;BME280;35268;42.642;23.308;2023-10-31T09:24:02;93894.03;;;16.84;53.00
49393;BME280;35268;42.642;23.308;2023-10-31T09:26:28;93887.75;;;16.96;51.75
49393;BME280;35268;42.642;23.308;2023-10-31T09:28:56;93880.53;;;17.00;52.43
49393;BME280;35268;42.642;23.308;2023-10-31T09:31:24;93877.63;;;17.09;52.30
49393;BME280;35268;42.642;23.308;2023-10-31T09:33:49;93877.78;;;17.16;51.19
49393;BME280;35268;42.642;23.308;2023-10-31T09:36:15;93867.28;;;17.30;49.94
49393;BME280;35268;42.642;23.308;2023-10-31T09:38:40;93863.22;;;17.40;50.70
49393;BME280;35268;42.642;23.308;2023-10-31T09:41:06;93870.25;;;17.44;49.09
49393;BME280;35268;42.642;23.308;2023-10-31T09:43:32;93861.28;;;17.60;49.18
49393;BME280;35268;42.642;23.308;2023-10-31T09:45:57;93846.53;;;17.73;49.04
49393;BME280;35268;42.642;23.308;2023-10-31T09:48:23;93840.06;;;17.78;48.98
49393;BME280;35268;42.642;23.308;2023-10-31T09:50:51;93842.31;;;17.76;48.01
49393;BME280;35268;42.642;23.308;2023-10-31T09:53:19;93839.22;;;17.97;47.57
49393;BME280;35268;42.642;23.308;2023-10-31T09:55:46;93826.03;;;18.15;47.80
49393;BME280;35268;42.642;23.308;2023-10-31T09:58:12;93830.47;;;18.27;46.76
49393;BME280;35268;42.642;23.308;2023-10-31T10:00:37;93822.28;;;18.46;45.42
49393;BME280;35268;42.642;23.308;2023-10-31T10:03:06;93827.00;;;18.53;44.67
49393;BME280;35268;42.642;23.308;2023-10-31T10:05:35;93817.03;;;18.57;45.47
49393;BME280;35268;42.642;23.308;2023-10-31T10:08:00;93815.84;;;18.81;45.83
49393;BME280;35268;42.642;23.308;2023-10-31T10:10:26;93805.31;;;19.02;44.38
49393;BME280;35268;42.642;23.308;2023-10-31T10:12:52;93796.13;;;19.11;42.89
49393;BME280;35268;42.642;23.308;2023-10-31T10:15:18;93794.41;;;19.29;43.35
49393;BME280;35268;42.642;23.308;2023-10-31T10:17:51;93784.16;;;19.45;43.80
49393;BME280;35268;42.642;23.308;2023-10-31T10:20:17;93789.06;;;19.70;42.77
49393;BME280;35268;42.642;23.308;2023-10-31T10:22:46;93792.31;;;19.87;40.53
49393;BME280;35268;42.642;23.308;2023-10-31T10:25:16;93783.81;;;19.88;40.68
49393;BME280;35268;42.642;23.308;2023-10-31T10:27:44;93775.41;;;19.97;40.53
49393;BME280;35268;42.642;23.308;2023-10-31T10:30:11;93775.00;;;19.95;40.85
49393;BME280;35268;42.642;23.308;2023-10-31T10:32:37;93774.88;;;19.84;40.60
49393;BME280;35268;42.642;23.308;2023-10-31T10:35:03;93774.47;;;19.82;40.63
49393;BME280;35268;42.642;23.308;2023-10-31T10:37:29;93763.00;;;19.96;41.15
49393;BME280;35268;42.642;23.308;2023-10-31T10:39:56;93762.38;;;20.13;40.67
49393;BME280;35268;42.642;23.308;2023-10-31T10:42:45;93760.19;;;20.37;39.59
49393;BME280;35268;42.642;23.308;2023-10-31T10:45:16;93742.53;;;20.57;38.24
49393;BME280;35268;42.642;23.308;2023-10-31T10:47:49;93728.34;;;20.78;39.08
49393;BME280;35268;42.642;23.308;2023-10-31T10:50:15;93733.38;;;20.80;38.78
49393;BME280;35268;42.642;23.308;2023-10-31T10:53:13;93729.59;;;21.06;37.92
49393;BME280;35268;42.642;23.308;2023-10-31T10:55:45;93730.03;;;21.19;37.06
49393;BME280;35268;42.642;23.308;2023-10-31T10:58:22;93728.88;;;21.34;36.42
49393;BME280;35268;42.642;23.308;2023-10-31T11:00:48;93707.22;;;21.41;36.23
49393;BME280;35268;42.642;23.308;2023-10-31T11:03:16;93712.69;;;21.52;36.50
49393;BME280;35268;42.642;23.308;2023-10-31T11:05:45;93717.31;;;21.55;36.86
49393;BME280;35268;42.642;23.308;2023-10-31T11:08:11;93711.91;;;21.59;36.29
49393;BME280;35268;42.642;23.308;2023-10-31T11:10:38;93710.75;;;21.46;35.39
49393;BME280;35268;42.642;23.308;2023-10-31T11:13:04;93710.34;;;21.47;35.84
49393;BME280;35268;42.642;23.308;2023-10-31T11:15:33;93710.75;;;21.56;35.96
49393;BME280;35268;42.642;23.308;2023-10-31T11:18:00;93698.72;;;21.61;35.35
49393;BME280;35268;42.642;23.308;2023-10-31T11:20:26;93693.31;;;21.68;35.13
49393;BME280;35268;42.642;23.308;2023-10-31T11:22:55;93687.88;;;21.75;35.02
49393;BME280;35268;42.642;23.308;2023-10-31T11:25:25;93681.31;;;21.80;34.79
49393;BME280;35268;42.642;23.308;2023-10-31T11:27:51;93675.88;;;21.80;34.22
49393;BME280;35268;42.642;23.308;2023-10-31T11:30:34;93676.25;;;21.86;34.23
49393;BME280;35268;42.642;23.308;2023-10-31T11:32:59;93669.28;;;21.92;33.98
49393;BME280;35268;42.642;23.308;2023-10-31T11:35:29;93672.38;;;21.94;33.38
49393;BME280;35268;42.642;23.308;2023-10-31T11:38:02;93659.19;;;21.99;33.09
49393;BME280;35268;42.642;23.308;2023-10-31T11:40:29;93663.06;;;22.02;31.97
49393;BME280;35268;42.642;23.308;2023-10-31T11:42:57;93651.03;;;22.07;31.66
49393;BME280;35268;42.642;23.308;2023-10-31T11:48:05;93645.19;;;22.08;31.25
49393;BME280;35268;42.642;23.308;2023-10-31T11:50:32;93649.47;;;22.09;31.15
49393;BME280;35268;42.642;23.308;2023-10-31T11:53:03;93642.88;;;22.10;31.43
49393;BME280;35268;42.642;23.308;2023-10-31T11:55:31;93640.91;;;22.14;30.52
49393;BME280;35268;42.642;23.308;2023-10-31T11:57:58;93628.53;;;22.10;30.73
49393;BME280;35268;42.642;23.308;2023-10-31T12:00:25;93630.47;;;22.06;30.40
49393;BME280;35268;42.642;23.308;2023-10-31T12:03:00;93635.91;;;22.06;30.10
49393;BME280;35268;42.642;23.308;2023-10-31T12:05:33;93634.75;;;22.07;31.31
49393;BME280;35268;42.642;23.308;2023-10-31T12:07:59;93624.72;;;21.89;30.99
49393;BME280;35268;42.642;23.308;2023-10-31T12:10:26;93616.97;;;21.80;30.28
49393;BME280;35268;42.642;23.308;2023-10-31T12:12:57;93610.38;;;21.81;30.08
49393;BME280;35268;42.642;23.308;2023-10-31T12:15:23;93613.84;;;21.93;30.40
49393;BME280;35268;42.642;23.308;2023-10-31T12:17:49;93612.66;;;22.01;30.34
49393;BME280;35268;42.642;23.308;2023-10-31T12:20:15;93614.19;;;22.09;29.70
49393;BME280;35268;42.642;23.308;2023-10-31T12:22:43;93609.16;;;22.15;29.22
49393;BME280;35268;42.642;23.308;2023-10-31T12:25:10;93602.16;;;22.17;29.45
49393;BME280;35268;42.642;23.308;2023-10-31T12:27:51;93610.28;;;22.24;29.17
49393;BME280;35268;42.642;23.308;2023-10-31T12:30:18;93602.88;;;22.36;29.01
49393;BME280;35268;42.642;23.308;2023-10-31T12:32:44;93600.16;;;22.39;28.27
49393;BME280;35268;42.642;23.308;2023-10-31T12:35:13;93590.44;;;22.42;27.98
49393;BME280;35268;42.642;23.308;2023-10-31T12:37:47;93586.97;;;22.45;28.46
49393;BME280;35268;42.642;23.308;2023-10-31T12:40:22;93584.56;;;22.61;29.56
49393;BME280;35268;42.642;23.308;2023-10-31T12:42:49;93581.72;;;22.79;29.25
49393;BME280;35268;42.642;23.308;2023-10-31T12:45:16;93574.63;;;22.96;29.06
49393;BME280;35268;42.642;23.308;2023-10-31T12:47:42;93567.22;;;23.00;28.37
49393;BME280;35268;42.642;23.308;2023-10-31T12:50:14;93562.50;;;23.12;28.35
49393;BME280;35268;42.642;23.308;2023-10-31T12:53:00;93577.53;;;23.27;28.10
49393;BME280;35268;42.642;23.308;2023-10-31T12:55:27;93570.09;;;23.35;27.98